Time;durP1;ratioP1;P1;durP2;ratioP2;P2;SDS_P1;SDS_P2;PMS_P1;PMS_P2;Temp;Humidity;BMP_temperature;BMP_pressure;BME280_temperature;BME280_humidity;BME280_pressure;Samples;Min_cycle;Max_cycle;Signal;HPM_P1;HPM_P2
2022/01/10 00:02:25;;;;;;;17.05;6.40;;;;;;;;;;4987094;28;20034;-73
2022/01/10 00:04:51;;;;;;;18.10;5.53;;;;;;;;;;4988733;28;20034;-73
2022/01/10 00:07:17;;;;;;;20.90;5.32;;;;;;;;;;4991370;28;20040;-73
2022/01/10 00:09:43;;;;;;;17.08;5.18;;;;;;;;;;4982065;28;20081;-73
2022/01/10 00:12:09;;;;;;;10.10;4.80;;;;;;;;;;4984865;28;20454;-73
2022/01/10 00:14:35;;;;;;;15.82;5.32;;;;;;;;;;4988948;28;20167;-73
2022/01/10 00:17:01;;;;;;;13.73;5.38;;;;;;;;;;4988897;28;20074;-73
2022/01/10 00:19:27;;;;;;;16.20;5.22;;;;;;;;;;4980030;28;20074;-73
2022/01/10 00:21:53;;;;;;;11.45;5.30;;;;;;;;;;4988930;28;20268;-72
2022/01/10 00:24:19;;;;;;;16.95;5.82;;;;;;;;;;4989062;28;20065;-73
2022/01/10 00:26:45;;;;;;;17.33;6.22;;;;;;;;;;4983985;28;20034;-73
2022/01/10 00:29:11;;;;;;;16.75;5.47;;;;;;;;;;4978025;28;20074;-73
2022/01/10 00:31:37;;;;;;;14.32;5.93;;;;;;;;;;4981329;28;20187;-73
2022/01/10 00:34:03;;;;;;;17.30;5.20;;;;;;;;;;4989403;28;20140;-72
2022/01/10 00:36:29;;;;;;;18.38;5.47;;;;;;;;;;4989216;28;20072;-73
2022/01/10 00:38:55;;;;;;;20.25;5.38;;;;;;;;;;4980259;28;20034;-73
2022/01/10 00:41:21;;;;;;;20.05;5.85;;;;;;;;;;4988724;28;20039;-72
2022/01/10 00:43:49;;;;;;;17.40;6.22;;;;;;;;;;4989329;28;20043;-73
2022/01/10 00:46:15;;;;;;;19.30;5.70;;;;;;;;;;4988100;28;20042;-73
2022/01/10 00:48:41;;;;;;;16.45;6.40;;;;;;;;;;4981234;28;20041;-72
2022/01/10 00:51:08;;;;;;;13.05;5.30;;;;;;;;;;4986333;28;20046;-72
2022/01/10 00:53:33;;;;;;;14.70;5.95;;;;;;;;;;4988280;28;20042;-72
2022/01/10 00:55:59;;;;;;;14.77;5.68;;;;;;;;;;4987395;28;20041;-72
2022/01/10 00:58:26;;;;;;;16.35;5.97;;;;;;;;;;4983561;28;20039;-72
2022/01/10 01:00:52;;;;;;;15.75;6.10;;;;;;;;;;4976656;28;20049;-72
2022/01/10 01:03:18;;;;;;;13.55;5.53;;;;;;;;;;4988651;28;20089;-72
2022/01/10 01:05:45;;;;;;;17.10;5.88;;;;;;;;;;4986021;28;20038;-72
2022/01/10 01:08:12;;;;;;;15.07;6.18;;;;;;;;;;4985694;28;20035;-72
2022/01/10 01:15:57;;;;;;;19.90;6.57;;;;;;;;;;4986970;28;20046;-72
2022/01/10 01:19:00;;;;;;;13.65;5.75;;;;;;;;;;4989135;28;20111;-72
2022/01/10 01:24:02;;;;;;;17.58;6.00;;;;;;;;;;4988916;28;20104;-72
2022/01/10 01:26:32;;;;;;;15.93;6.28;;;;;;;;;;4988313;28;20117;-72
2022/01/10 01:28:58;;;;;;;16.20;5.93;;;;;;;;;;4980255;28;20042;-72
2022/01/10 01:31:24;;;;;;;15.07;6.30;;;;;;;;;;4981551;28;20385;-71
2022/01/10 01:33:50;;;;;;;12.70;7.15;;;;;;;;;;4991428;28;20042;-72
2022/01/10 01:36:21;;;;;;;19.05;6.00;;;;;;;;;;4989835;28;20049;-72
2022/01/10 01:38:47;;;;;;;15.32;6.90;;;;;;;;;;4983260;28;20038;-71
2022/01/10 01:41:35;;;;;;;15.60;6.72;;;;;;;;;;4991256;28;20046;-71
2022/01/10 01:44:02;;;;;;;19.70;6.72;;;;;;;;;;4991769;28;20506;-71
2022/01/10 01:46:28;;;;;;;17.05;6.70;;;;;;;;;;4990615;28;20065;-71
2022/01/10 01:48:54;;;;;;;15.65;6.20;;;;;;;;;;4983217;28;20066;-71
2022/01/10 01:51:20;;;;;;;22.25;7.10;;;;;;;;;;4991010;28;20500;-71
2022/01/10 01:53:47;;;;;;;17.33;6.78;;;;;;;;;;4991391;28;20053;-71
2022/01/10 01:56:14;;;;;;;17.15;6.97;;;;;;;;;;4988864;28;20038;-71
2022/01/10 01:58:41;;;;;;;18.52;7.30;;;;;;;;;;4985024;28;20491;-71
2022/01/10 02:01:08;;;;;;;17.63;7.10;;;;;;;;;;4984020;28;20044;-71
2022/01/10 02:03:37;;;;;;;14.93;7.43;;;;;;;;;;4983233;28;20079;-71
2022/01/10 02:06:03;;;;;;;18.00;7.15;;;;;;;;;;4989332;28;20042;-71
2022/01/10 02:08:29;;;;;;;14.93;7.13;;;;;;;;;;4982536;28;20038;-71
2022/01/10 02:10:55;;;;;;;17.25;7.18;;;;;;;;;;4990200;28;20491;-71
2022/01/10 02:13:21;;;;;;;16.88;7.82;;;;;;;;;;4991512;28;20042;-71
2022/01/10 02:15:57;;;;;;;13.10;6.50;;;;;;;;;;4989928;28;20043;-71
2022/01/10 02:18:23;;;;;;;19.25;7.03;;;;;;;;;;4985479;28;20121;-71
2022/01/10 02:20:50;;;;;;;16.30;7.55;;;;;;;;;;4976739;28;20050;-71
2022/01/10 02:23:16;;;;;;;17.00;7.55;;;;;;;;;;4991128;28;20038;-71
2022/01/10 02:25:42;;;;;;;15.55;7.32;;;;;;;;;;4988880;28;20507;-71
2022/01/10 02:28:08;;;;;;;18.08;8.50;;;;;;;;;;4988952;28;20031;-71
2022/01/10 02:30:34;;;;;;;19.45;7.63;;;;;;;;;;4977286;28;20073;-71
2022/01/10 02:33:01;;;;;;;19.23;7.65;;;;;;;;;;4990905;28;20050;-71
2022/01/10 02:35:30;;;;;;;15.32;7.90;;;;;;;;;;4989415;28;20046;-71
2022/01/10 02:37:56;;;;;;;17.63;6.90;;;;;;;;;;4987819;28;20043;-71
2022/01/10 02:40:24;;;;;;;13.45;7.05;;;;;;;;;;4988883;28;20499;-71
2022/01/10 02:42:51;;;;;;;14.25;7.50;;;;;;;;;;4991125;28;20459;-71
2022/01/10 02:45:17;;;;;;;15.82;7.32;;;;;;;;;;4988086;28;20377;-70
2022/01/10 02:47:44;;;;;;;14.77;7.55;;;;;;;;;;4990428;28;20087;-71
2022/01/10 02:50:10;;;;;;;14.75;7.38;;;;;;;;;;4984601;28;20043;-71
2022/01/10 02:52:37;;;;;;;14.52;6.85;;;;;;;;;;4990592;28;20049;-71
2022/01/10 02:55:03;;;;;;;23.70;8.10;;;;;;;;;;4990649;28;20069;-70
2022/01/10 02:57:29;;;;;;;18.35;7.97;;;;;;;;;;4987483;28;20106;-70
2022/01/10 02:59:56;;;;;;;19.00;6.57;;;;;;;;;;4987040;28;20043;-70
2022/01/10 03:02:26;;;;;;;13.70;6.80;;;;;;;;;;4981663;28;20487;-71
2022/01/10 03:04:52;;;;;;;16.92;7.47;;;;;;;;;;4989520;28;20045;-71
2022/01/10 03:07:22;;;;;;;17.63;7.68;;;;;;;;;;4989005;28;20038;-70
2022/01/10 03:09:48;;;;;;;19.73;7.18;;;;;;;;;;4990121;28;20042;-70
2022/01/10 03:12:15;;;;;;;18.38;6.60;;;;;;;;;;4989046;28;20046;-70
2022/01/10 03:14:41;;;;;;;16.30;7.13;;;;;;;;;;4989319;28;20087;-71
2022/01/10 03:17:08;;;;;;;17.00;7.15;;;;;;;;;;4988641;28;20505;-71
2022/01/10 03:19:34;;;;;;;14.25;6.50;;;;;;;;;;4978121;28;20400;-70
2022/01/10 03:22:00;;;;;;;16.40;8.13;;;;;;;;;;4989310;28;20738;-70
2022/01/10 03:24:26;;;;;;;22.23;7.95;;;;;;;;;;4990349;28;20077;-71
2022/01/10 03:26:52;;;;;;;17.55;7.35;;;;;;;;;;4990937;28;20038;-70
2022/01/10 03:29:19;;;;;;;19.27;7.47;;;;;;;;;;4988732;28;20038;-71
2022/01/10 03:31:45;;;;;;;14.32;7.40;;;;;;;;;;4990066;28;20050;-70
2022/01/10 03:34:13;;;;;;;15.00;7.57;;;;;;;;;;4989622;28;20053;-70
2022/01/10 03:36:39;;;;;;;16.95;8.43;;;;;;;;;;4987374;28;20049;-70
2022/01/10 03:39:05;;;;;;;18.13;7.78;;;;;;;;;;4983004;28;20125;-70
2022/01/10 03:41:31;;;;;;;12.50;7.50;;;;;;;;;;4989208;28;20134;-70
2022/01/10 03:43:57;;;;;;;16.90;7.78;;;;;;;;;;4989637;28;20039;-71
2022/01/10 03:46:23;;;;;;;13.45;7.22;;;;;;;;;;4988071;28;20120;-70
2022/01/10 03:48:49;;;;;;;13.85;6.72;;;;;;;;;;4978602;28;20043;-70
2022/01/10 03:51:15;;;;;;;24.23;8.45;;;;;;;;;;4978237;28;20096;-71
2022/01/10 03:53:41;;;;;;;16.77;7.97;;;;;;;;;;4986100;28;20070;-70
2022/01/10 03:56:07;;;;;;;35.92;9.20;;;;;;;;;;4986537;28;20034;-71
2022/01/10 03:58:33;;;;;;;21.33;8.63;;;;;;;;;;4991812;28;20039;-70
2022/01/10 04:01:01;;;;;;;16.27;8.07;;;;;;;;;;4988987;28;20035;-70
2022/01/10 04:03:27;;;;;;;15.55;7.60;;;;;;;;;;4989395;28;20081;-70
2022/01/10 04:05:53;;;;;;;11.95;6.65;;;;;;;;;;4987539;28;20070;-70
2022/01/10 04:08:19;;;;;;;11.43;6.68;;;;;;;;;;4982279;28;20042;-70
2022/01/10 04:10:45;;;;;;;12.57;6.70;;;;;;;;;;4989262;28;20407;-71
2022/01/10 04:13:12;;;;;;;13.20;6.95;;;;;;;;;;4989156;28;20046;-69
2022/01/10 04:15:38;;;;;;;13.10;6.43;;;;;;;;;;4988235;28;20042;-70
2022/01/10 04:18:04;;;;;;;13.18;6.50;;;;;;;;;;4979665;28;20061;-71
2022/01/10 04:20:30;;;;;;;12.20;6.45;;;;;;;;;;4988350;28;20072;-70
2022/01/10 04:22:56;;;;;;;13.43;5.55;;;;;;;;;;4988823;28;20438;-70
2022/01/10 04:25:22;;;;;;;12.10;6.03;;;;;;;;;;4986230;28;20038;-70
2022/01/10 04:27:48;;;;;;;10.05;5.65;;;;;;;;;;4987524;28;20152;-70
2022/01/10 04:30:13;;;;;;;10.75;6.10;;;;;;;;;;4989002;28;20129;-71
2022/01/10 04:32:42;;;;;;;7.95;5.95;;;;;;;;;;4988494;28;20096;-70
2022/01/10 04:35:08;;;;;;;10.43;5.68;;;;;;;;;;4987961;28;20522;-70
2022/01/10 04:37:34;;;;;;;10.63;5.40;;;;;;;;;;4990058;28;20045;-70
2022/01/10 04:40:00;;;;;;;7.20;5.05;;;;;;;;;;4982723;28;20343;-70
2022/01/10 04:42:26;;;;;;;9.60;5.80;;;;;;;;;;4984378;28;20057;-70
2022/01/10 04:44:52;;;;;;;9.70;5.53;;;;;;;;;;5067195;28;20037;-70
2022/01/10 04:47:18;;;;;;;9.55;5.53;;;;;;;;;;5007927;28;20065;-70
2022/01/10 04:52:29;;;;;;;9.98;6.30;;;;;;;;;;4988480;28;20074;-70
2022/01/10 04:54:55;;;;;;;12.63;6.55;;;;;;;;;;4988384;28;20038;-70
2022/01/10 04:57:21;;;;;;;13.13;6.30;;;;;;;;;;4989566;28;20126;-70
2022/01/10 04:59:47;;;;;;;10.13;6.05;;;;;;;;;;4971469;28;20038;-70
2022/01/10 05:02:13;;;;;;;9.45;6.05;;;;;;;;;;4984540;28;20498;-70
2022/01/10 05:04:39;;;;;;;10.20;5.88;;;;;;;;;;5040474;22;20150;-65
2022/01/10 05:07:05;;;;;;;11.65;6.65;;;;;;;;;;5068931;28;20067;-65
2022/01/10 05:09:31;;;;;;;9.32;5.97;;;;;;;;;;5090218;28;20066;-66
2022/01/10 05:11:58;;;;;;;10.07;5.50;;;;;;;;;;5069904;28;20044;-65
2022/01/10 05:14:25;;;;;;;9.80;6.22;;;;;;;;;;5081188;28;20040;-65
2022/01/10 05:16:51;;;;;;;10.80;5.72;;;;;;;;;;5076801;28;20490;-66
2022/01/10 05:19:17;;;;;;;9.15;5.65;;;;;;;;;;5045841;28;20525;-65
2022/01/10 05:21:43;;;;;;;11.77;6.70;;;;;;;;;;5065048;28;20076;-65
2022/01/10 05:24:09;;;;;;;10.02;6.80;;;;;;;;;;5067157;28;20376;-67
2022/01/10 05:26:35;;;;;;;11.85;7.13;;;;;;;;;;5064357;28;20496;-67
2022/01/10 05:29:02;;;;;;;16.00;8.55;;;;;;;;;;5062408;28;20044;-67
2022/01/10 05:31:29;;;;;;;11.07;6.97;;;;;;;;;;5071316;28;20036;-67
2022/01/10 05:33:55;;;;;;;12.73;7.60;;;;;;;;;;5073683;28;20117;-67
2022/01/10 05:36:21;;;;;;;11.02;7.35;;;;;;;;;;5059446;28;20037;-68
2022/01/10 05:38:47;;;;;;;12.95;7.80;;;;;;;;;;5057126;28;20116;-68
2022/01/10 05:41:13;;;;;;;14.82;7.60;;;;;;;;;;5071397;28;20040;-67
2022/01/10 05:43:39;;;;;;;16.15;8.07;;;;;;;;;;5039038;28;20037;-68
2022/01/10 05:46:09;;;;;;;13.35;8.38;;;;;;;;;;5055888;28;20059;-67
2022/01/10 05:48:36;;;;;;;13.40;7.97;;;;;;;;;;5065476;28;20037;-68
2022/01/10 05:51:03;;;;;;;13.80;8.23;;;;;;;;;;5066957;28;20461;-68
2022/01/10 05:53:29;;;;;;;15.48;8.18;;;;;;;;;;5036095;28;20061;-68
2022/01/10 05:55:55;;;;;;;12.35;7.32;;;;;;;;;;5068929;28;20117;-68
2022/01/10 05:58:21;;;;;;;22.90;9.57;;;;;;;;;;5063352;28;20036;-68
2022/01/10 06:00:47;;;;;;;14.90;8.70;;;;;;;;;;5063831;28;20064;-68
2022/01/10 06:03:14;;;;;;;12.45;8.02;;;;;;;;;;5072073;28;20565;-68
2022/01/10 06:05:40;;;;;;;18.10;8.70;;;;;;;;;;5070859;28;20035;-68
2022/01/10 06:08:07;;;;;;;21.67;8.10;;;;;;;;;;5024784;28;20068;-68
2022/01/10 06:10:33;;;;;;;19.65;9.30;;;;;;;;;;5056634;28;20090;-68
2022/01/10 06:12:59;;;;;;;17.83;9.00;;;;;;;;;;5045736;28;20512;-68
2022/01/10 06:15:25;;;;;;;18.10;9.23;;;;;;;;;;5067425;28;20501;-68
2022/01/10 06:17:51;;;;;;;16.23;8.77;;;;;;;;;;5064280;28;20041;-68
2022/01/10 06:20:18;;;;;;;19.27;8.90;;;;;;;;;;5056493;28;20124;-68
2022/01/10 06:22:44;;;;;;;18.25;9.10;;;;;;;;;;5065765;28;20041;-68
2022/01/10 06:25:12;;;;;;;20.58;9.95;;;;;;;;;;5068478;28;20135;-68
2022/01/10 06:27:37;;;;;;;18.00;8.95;;;;;;;;;;5060191;28;20379;-68
2022/01/10 06:30:04;;;;;;;13.73;8.63;;;;;;;;;;5053687;28;20066;-68
2022/01/10 06:32:30;;;;;;;17.13;9.38;;;;;;;;;;5060988;28;20098;-68
2022/01/10 06:34:57;;;;;;;16.60;9.02;;;;;;;;;;5040604;28;20094;-68
2022/01/10 06:37:23;;;;;;;21.75;9.43;;;;;;;;;;5041951;28;20048;-68
2022/01/10 06:39:49;;;;;;;17.83;10.13;;;;;;;;;;5056164;28;20036;-68
2022/01/10 06:42:16;;;;;;;18.83;9.88;;;;;;;;;;5066426;28;20041;-68
2022/01/10 06:44:42;;;;;;;15.70;9.98;;;;;;;;;;5071875;28;20043;-68
2022/01/10 06:47:07;;;;;;;12.57;9.75;;;;;;;;;;5063118;28;20032;-69
2022/01/10 06:49:34;;;;;;;13.90;8.45;;;;;;;;;;5064268;28;20094;-68
2022/01/10 06:52:00;;;;;;;17.55;8.75;;;;;;;;;;5066080;28;20041;-68
2022/01/10 06:54:26;;;;;;;15.93;7.97;;;;;;;;;;5059454;28;20083;-69
2022/01/10 06:56:52;;;;;;;14.23;8.90;;;;;;;;;;5058942;28;20056;-69
2022/01/10 06:59:18;;;;;;;13.85;8.65;;;;;;;;;;5055412;28;20037;-68
2022/01/10 07:01:45;;;;;;;15.75;9.68;;;;;;;;;;5056510;28;20047;-69
2022/01/10 07:04:11;;;;;;;13.55;9.20;;;;;;;;;;5070029;28;20035;-68
2022/01/10 07:06:38;;;;;;;9.38;7.80;;;;;;;;;;5062891;28;20043;-68
2022/01/10 07:09:04;;;;;;;10.82;9.05;;;;;;;;;;5064255;28;20115;-68
2022/01/10 07:11:30;;;;;;;11.95;8.57;;;;;;;;;;5057574;28;20068;-68
2022/01/10 07:13:56;;;;;;;10.93;8.32;;;;;;;;;;5073379;28;20106;-68
2022/01/10 07:16:22;;;;;;;15.07;7.88;;;;;;;;;;5046617;28;20055;-68
2022/01/10 07:18:48;;;;;;;10.43;7.82;;;;;;;;;;5057641;28;20032;-69
2022/01/10 07:21:14;;;;;;;30.45;9.25;;;;;;;;;;5052113;28;20135;-68
2022/01/10 07:23:40;;;;;;;13.52;9.57;;;;;;;;;;5051377;28;20568;-68
2022/01/10 07:26:06;;;;;;;16.27;9.75;;;;;;;;;;5053936;28;20087;-68
2022/01/10 07:28:32;;;;;;;14.00;9.57;;;;;;;;;;5060276;28;20078;-68
2022/01/10 07:30:58;;;;;;;15.93;10.27;;;;;;;;;;5034536;28;20095;-68
2022/01/10 07:33:24;;;;;;;15.32;10.02;;;;;;;;;;5062300;28;20391;-68
2022/01/10 07:35:50;;;;;;;15.30;9.55;;;;;;;;;;5067574;28;20090;-68
2022/01/10 07:38:16;;;;;;;13.57;9.60;;;;;;;;;;5077500;28;20092;-69
2022/01/10 07:40:42;;;;;;;12.23;10.10;;;;;;;;;;5072186;28;20049;-68
2022/01/10 07:43:08;;;;;;;14.20;9.88;;;;;;;;;;5057108;28;20139;-68
2022/01/10 07:45:34;;;;;;;16.10;9.68;;;;;;;;;;5065973;28;20036;-69
2022/01/10 07:48:00;;;;;;;12.90;8.90;;;;;;;;;;5052003;28;20040;-68
2022/01/10 07:50:26;;;;;;;14.40;10.25;;;;;;;;;;5059123;28;20166;-69
2022/01/10 07:52:52;;;;;;;12.85;9.52;;;;;;;;;;5071722;28;20131;-68
2022/01/10 07:55:18;;;;;;;11.52;9.45;;;;;;;;;;5070935;28;20062;-68
2022/01/10 07:57:45;;;;;;;11.20;8.90;;;;;;;;;;5058430;28;20047;-68
2022/01/10 08:00:12;;;;;;;11.43;9.27;;;;;;;;;;5063438;28;20045;-68
2022/01/10 08:02:38;;;;;;;15.55;10.15;;;;;;;;;;5056091;28;20394;-68
2022/01/10 08:05:04;;;;;;;10.95;9.00;;;;;;;;;;5063266;28;20036;-68
2022/01/10 08:07:30;;;;;;;13.45;9.00;;;;;;;;;;5071008;28;20032;-68
2022/01/10 08:09:56;;;;;;;15.80;9.68;;;;;;;;;;5063785;28;20698;-68
2022/01/10 08:12:22;;;;;;;41.97;11.77;;;;;;;;;;5074140;28;20115;-68
2022/01/10 08:14:48;;;;;;;83.93;13.80;;;;;;;;;;5066800;28;20040;-68
2022/01/10 08:17:14;;;;;;;70.50;12.02;;;;;;;;;;5054252;28;20041;-69
2022/01/10 08:19:40;;;;;;;123.30;14.75;;;;;;;;;;5074625;28;20045;-68
2022/01/10 08:22:07;;;;;;;76.70;13.30;;;;;;;;;;5066688;28;20054;-68
2022/01/10 08:24:33;;;;;;;47.65;11.68;;;;;;;;;;5078147;28;20029;-68
2022/01/10 08:26:59;;;;;;;52.35;12.85;;;;;;;;;;5060063;28;20396;-69
2022/01/10 08:29:25;;;;;;;44.42;13.27;;;;;;;;;;5061618;28;20544;-68
2022/01/10 08:31:52;;;;;;;43.67;12.68;;;;;;;;;;5029503;28;20079;-70
2022/01/10 08:34:19;;;;;;;97.38;15.23;;;;;;;;;;5064579;28;20383;-68
2022/01/10 08:36:45;;;;;;;70.20;14.63;;;;;;;;;;5065362;28;20068;-68
2022/01/10 08:39:11;;;;;;;53.95;13.15;;;;;;;;;;5084321;28;20087;-68
2022/01/10 08:41:37;;;;;;;42.30;12.80;;;;;;;;;;5065331;28;20498;-68
2022/01/10 08:44:04;;;;;;;46.15;13.43;;;;;;;;;;5057887;28;20028;-67
2022/01/10 08:46:36;;;;;;;29.45;12.50;;;;;;;;;;5060053;28;20041;-68
2022/01/10 08:49:02;;;;;;;38.47;12.73;;;;;;;;;;5057478;28;20135;-68
2022/01/10 08:51:29;;;;;;;40.55;12.18;;;;;;;;;;5061054;28;20120;-69
2022/01/10 08:53:55;;;;;;;82.25;14.48;;;;;;;;;;5050390;28;20039;-68
2022/01/10 08:56:21;;;;;;;51.85;15.32;;;;;;;;;;5068201;28;20068;-68
2022/01/10 08:58:47;;;;;;;29.92;14.13;;;;;;;;;;5072220;28;20079;-68
2022/01/10 09:01:13;;;;;;;44.55;13.45;;;;;;;;;;5055578;28;20397;-67
2022/01/10 09:03:39;;;;;;;55.20;13.85;;;;;;;;;;5045948;28;20040;-67
2022/01/10 09:06:05;;;;;;;72.13;14.80;;;;;;;;;;5071153;28;20032;-67
2022/01/10 09:08:33;;;;;;;45.90;13.90;;;;;;;;;;5064483;28;20063;-67
2022/01/10 09:11:00;;;;;;;32.95;13.15;;;;;;;;;;5074929;28;20047;-67
2022/01/10 09:13:26;;;;;;;49.28;14.77;;;;;;;;;;5063339;28;20060;-67
2022/01/10 09:15:52;;;;;;;76.30;15.90;;;;;;;;;;5054471;28;20045;-67
2022/01/10 09:18:18;;;;;;;77.80;16.38;;;;;;;;;;5054867;28;20099;-68
2022/01/10 09:20:44;;;;;;;124.88;18.40;;;;;;;;;;5056754;28;20045;-68
2022/01/10 09:23:11;;;;;;;65.63;16.13;;;;;;;;;;5061735;28;20037;-68
2022/01/10 09:25:36;;;;;;;57.22;16.42;;;;;;;;;;5058181;28;20057;-68
2022/01/10 09:28:03;;;;;;;47.20;15.82;;;;;;;;;;5056742;28;20166;-68
2022/01/10 09:30:29;;;;;;;38.65;14.52;;;;;;;;;;5058650;28;20559;-68
2022/01/10 09:32:55;;;;;;;41.38;17.05;;;;;;;;;;5050463;28;20098;-68
2022/01/10 09:35:22;;;;;;;48.97;17.10;;;;;;;;;;5053887;28;20052;-68
2022/01/10 09:37:48;;;;;;;37.15;16.23;;;;;;;;;;5058590;28;20051;-67
2022/01/10 09:40:15;;;;;;;34.88;15.93;;;;;;;;;;5073506;28;20086;-67
2022/01/10 09:42:41;;;;;;;30.58;16.45;;;;;;;;;;5074333;28;20082;-67
2022/01/10 09:45:08;;;;;;;27.23;17.00;;;;;;;;;;5073701;28;20571;-67
2022/01/10 09:47:34;;;;;;;23.15;16.52;;;;;;;;;;5057931;28;20041;-67
2022/01/10 09:50:00;;;;;;;31.75;18.98;;;;;;;;;;5073482;28;20059;-67
2022/01/10 09:52:26;;;;;;;27.13;18.27;;;;;;;;;;5074303;28;20267;-67
2022/01/10 09:54:53;;;;;;;27.95;18.48;;;;;;;;;;5055392;28;20064;-67
2022/01/10 09:57:19;;;;;;;31.25;19.23;;;;;;;;;;5058421;28;20099;-67
2022/01/10 09:59:47;;;;;;;26.92;19.13;;;;;;;;;;5055603;28;20040;-67
2022/01/10 10:02:13;;;;;;;34.95;21.73;;;;;;;;;;5036026;28;20053;-67
2022/01/10 10:04:39;;;;;;;34.40;20.52;;;;;;;;;;5035574;28;20368;-67
2022/01/10 10:07:06;;;;;;;35.15;19.88;;;;;;;;;;5056047;28;20043;-67
2022/01/10 10:09:33;;;;;;;35.95;21.25;;;;;;;;;;5070128;28;20059;-67
2022/01/10 10:12:00;;;;;;;34.53;21.90;;;;;;;;;;5055911;28;20076;-67
2022/01/10 10:14:26;;;;;;;36.25;21.63;;;;;;;;;;5055757;28;20048;-67
2022/01/10 10:16:57;;;;;;;41.22;22.48;;;;;;;;;;5063190;28;20044;-67
2022/01/10 10:19:27;;;;;;;34.88;21.52;;;;;;;;;;5050565;28;20514;-67
2022/01/10 10:21:55;;;;;;;39.10;22.97;;;;;;;;;;5055558;28;20048;-67
2022/01/10 10:24:21;;;;;;;34.63;22.15;;;;;;;;;;5052738;28;20048;-67
2022/01/10 10:26:48;;;;;;;35.47;23.25;;;;;;;;;;5056029;28;20047;-67
2022/01/10 10:29:17;;;;;;;40.83;23.42;;;;;;;;;;5049604;28;20118;-67
2022/01/10 10:31:45;;;;;;;43.05;23.92;;;;;;;;;;5072303;28;20110;-67
2022/01/10 10:34:12;;;;;;;41.40;23.95;;;;;;;;;;5072809;28;20040;-67
2022/01/10 10:36:39;;;;;;;42.13;25.10;;;;;;;;;;5064201;28;20098;-67
2022/01/10 10:39:10;;;;;;;40.42;24.02;;;;;;;;;;5041976;28;20444;-67
2022/01/10 10:41:36;;;;;;;44.15;23.67;;;;;;;;;;5053188;28;20049;-67
2022/01/10 10:44:02;;;;;;;42.75;24.92;;;;;;;;;;5052988;28;20041;-67
2022/01/10 10:46:28;;;;;;;43.58;24.75;;;;;;;;;;5054534;28;20127;-66
2022/01/10 10:49:04;;;;;;;42.10;25.45;;;;;;;;;;5064581;28;20112;-67
2022/01/10 10:51:31;;;;;;;45.25;24.85;;;;;;;;;;5072184;28;20115;-66
2022/01/10 10:54:05;;;;;;;43.80;26.42;;;;;;;;;;5072559;28;20040;-67
2022/01/10 10:56:32;;;;;;;48.78;27.48;;;;;;;;;;5063972;28;20090;-67
2022/01/10 10:58:59;;;;;;;41.22;26.02;;;;;;;;;;5062620;28;20409;-66
2022/01/10 11:01:25;;;;;;;50.25;27.02;;;;;;;;;;5065696;28;20051;-66
2022/01/10 11:03:51;;;;;;;43.55;27.50;;;;;;;;;;5052426;28;20033;-69
2022/01/10 11:06:18;;;;;;;41.22;26.08;;;;;;;;;;5027264;22;20096;-72
2022/01/10 11:08:45;;;;;;;43.63;27.02;;;;;;;;;;5008243;28;20456;-72
2022/01/10 11:11:15;;;;;;;51.17;27.85;;;;;;;;;;5010116;28;20511;-72
2022/01/10 11:13:41;;;;;;;49.65;28.70;;;;;;;;;;5010128;28;20045;-72
2022/01/10 11:16:09;;;;;;;49.97;27.77;;;;;;;;;;5007622;28;20048;-72
2022/01/10 11:18:35;;;;;;;43.95;27.35;;;;;;;;;;5011556;28;20095;-72
2022/01/10 11:21:02;;;;;;;51.00;29.75;;;;;;;;;;5010061;28;20046;-72
2022/01/10 11:23:28;;;;;;;45.13;26.98;;;;;;;;;;5009245;28;20038;-72
2022/01/10 11:25:56;;;;;;;47.40;27.40;;;;;;;;;;5006930;28;20041;-72
2022/01/10 11:28:23;;;;;;;45.22;26.17;;;;;;;;;;5011537;28;20083;-72
2022/01/10 11:30:51;;;;;;;45.78;26.85;;;;;;;;;;5009711;28;20069;-72
2022/01/10 11:33:18;;;;;;;43.45;27.50;;;;;;;;;;5009518;28;20487;-72
2022/01/10 11:35:46;;;;;;;47.80;27.95;;;;;;;;;;5008008;28;20136;-72
2022/01/10 11:38:16;;;;;;;48.28;27.35;;;;;;;;;;5010324;28;20034;-72
2022/01/10 11:40:43;;;;;;;42.55;27.42;;;;;;;;;;5009738;28;20058;-72
2022/01/10 11:43:09;;;;;;;47.08;26.58;;;;;;;;;;5009693;28;20038;-72
2022/01/10 11:45:42;;;;;;;46.25;27.40;;;;;;;;;;5007907;28;20097;-72
2022/01/10 11:48:11;;;;;;;41.95;25.13;;;;;;;;;;5009352;28;20380;-72
2022/01/10 11:50:41;;;;;;;53.00;28.67;;;;;;;;;;5009730;28;20046;-73
2022/01/10 11:53:08;;;;;;;43.35;27.10;;;;;;;;;;5007158;28;20087;-73
2022/01/10 11:56:04;;;;;;;43.15;26.73;;;;;;;;;;5008266;28;20361;-73
2022/01/10 11:58:30;;;;;;;42.53;25.63;;;;;;;;;;5013492;28;20046;-73
2022/01/10 12:01:05;;;;;;;38.80;24.45;;;;;;;;;;5009495;28;20088;-73
2022/01/10 12:03:31;;;;;;;42.53;25.50;;;;;;;;;;5009480;28;20046;-73
2022/01/10 12:05:58;;;;;;;39.28;25.88;;;;;;;;;;5007204;28;20038;-73
2022/01/10 12:08:24;;;;;;;42.28;24.02;;;;;;;;;;5002672;28;20038;-73
2022/01/10 12:10:50;;;;;;;35.53;22.67;;;;;;;;;;4989367;28;20068;-74
2022/01/10 12:13:16;;;;;;;43.30;23.73;;;;;;;;;;4989885;28;20042;-74
2022/01/10 12:15:42;;;;;;;42.03;23.58;;;;;;;;;;4990133;28;20053;-74
2022/01/10 12:18:08;;;;;;;41.63;24.17;;;;;;;;;;5011670;28;20120;-73
2022/01/10 12:20:35;;;;;;;41.97;24.27;;;;;;;;;;5008468;28;20422;-74
2022/01/10 12:23:01;;;;;;;31.52;21.33;;;;;;;;;;5008406;28;20118;-73
2022/01/10 12:25:28;;;;;;;30.42;20.40;;;;;;;;;;5007691;28;20069;-74
2022/01/10 12:27:56;;;;;;;35.80;20.70;;;;;;;;;;5011435;28;20046;-73
2022/01/10 12:30:25;;;;;;;37.65;20.42;;;;;;;;;;5009146;28;20046;-74
2022/01/10 12:32:51;;;;;;;31.15;20.90;;;;;;;;;;5008900;28;20502;-74
2022/01/10 12:35:17;;;;;;;31.83;21.27;;;;;;;;;;5006572;28;20241;-73
2022/01/10 12:37:44;;;;;;;32.30;21.20;;;;;;;;;;5009047;28;20038;-74
2022/01/10 12:40:10;;;;;;;32.78;20.27;;;;;;;;;;5008682;28;20042;-74
2022/01/10 12:42:37;;;;;;;38.47;21.05;;;;;;;;;;5008953;28;20125;-74
2022/01/10 12:45:04;;;;;;;32.58;20.20;;;;;;;;;;5008743;28;20117;-74
2022/01/10 12:47:30;;;;;;;35.25;20.30;;;;;;;;;;5008831;28;20037;-74
2022/01/10 12:49:56;;;;;;;31.13;20.95;;;;;;;;;;5007143;28;20372;-74
2022/01/10 12:52:22;;;;;;;35.25;22.17;;;;;;;;;;5008232;28;20037;-74
2022/01/10 12:54:49;;;;;;;40.17;22.73;;;;;;;;;;5008354;28;20041;-74
2022/01/10 12:57:15;;;;;;;36.53;21.73;;;;;;;;;;5009183;28;20049;-74
2022/01/10 12:59:42;;;;;;;32.80;20.52;;;;;;;;;;5008279;28;20419;-75
2022/01/10 13:02:09;;;;;;;35.47;21.58;;;;;;;;;;5010030;28;20499;-74
2022/01/10 13:04:39;;;;;;;29.73;19.75;;;;;;;;;;5007919;28;20411;-74
2022/01/10 13:07:13;;;;;;;30.85;20.25;;;;;;;;;;5009947;28;20037;-74
2022/01/10 13:09:40;;;;;;;39.25;20.40;;;;;;;;;;4991608;28;20049;-74
2022/01/10 13:12:24;;;;;;;33.88;19.80;;;;;;;;;;4989133;28;20403;-74
2022/01/10 13:14:51;;;;;;;35.92;19.73;;;;;;;;;;4996934;28;20046;-74
2022/01/10 13:17:21;;;;;;;34.30;20.58;;;;;;;;;;5008511;28;20044;-74
2022/01/10 13:19:47;;;;;;;32.70;19.80;;;;;;;;;;5008117;28;20052;-74
2022/01/10 13:22:15;;;;;;;30.33;18.15;;;;;;;;;;5011015;28;20177;-74
2022/01/10 13:24:51;;;;;;;30.83;18.30;;;;;;;;;;5011318;28;20048;-74
2022/01/10 13:27:21;;;;;;;33.25;17.38;;;;;;;;;;5012094;28;20049;-74
2022/01/10 13:29:48;;;;;;;31.80;18.85;;;;;;;;;;5011221;28;20045;-74
2022/01/10 13:32:29;;;;;;;30.13;17.65;;;;;;;;;;5011055;28;20038;-74
2022/01/10 13:35:02;;;;;;;30.65;18.30;;;;;;;;;;5011197;28;20038;-74
2022/01/10 13:37:34;;;;;;;30.60;18.77;;;;;;;;;;5011913;28;20069;-74
2022/01/10 13:40:14;;;;;;;30.17;18.23;;;;;;;;;;4991946;28;20550;-74
2022/01/10 13:42:59;;;;;;;31.85;18.73;;;;;;;;;;4993389;28;20537;-74
2022/01/10 13:45:41;;;;;;;33.83;19.20;;;;;;;;;;5009640;28;20042;-74
2022/01/10 13:48:09;;;;;;;31.77;17.95;;;;;;;;;;5011864;28;20138;-74
2022/01/10 13:50:35;;;;;;;31.58;18.15;;;;;;;;;;5011330;28;20120;-74
2022/01/10 13:53:02;;;;;;;29.70;18.77;;;;;;;;;;5011217;28;20042;-73
2022/01/10 13:55:28;;;;;;;30.05;18.75;;;;;;;;;;5009077;28;20298;-74
2022/01/10 13:57:54;;;;;;;35.60;20.02;;;;;;;;;;5010588;28;20043;-74
2022/01/10 14:00:23;;;;;;;35.63;21.67;;;;;;;;;;4996366;28;20037;-74
2022/01/10 14:02:50;;;;;;;36.80;21.90;;;;;;;;;;5011093;28;20085;-73
2022/01/10 14:05:21;;;;;;;34.30;21.33;;;;;;;;;;5009061;28;20125;-74
2022/01/10 14:07:47;;;;;;;36.28;21.77;;;;;;;;;;5009828;28;20038;-74
2022/01/10 14:10:13;;;;;;;35.15;21.58;;;;;;;;;;4991863;28;20049;-73
2022/01/10 14:12:39;;;;;;;37.05;22.80;;;;;;;;;;5004351;28;20046;-74
2022/01/10 14:15:05;;;;;;;41.90;22.60;;;;;;;;;;5010630;28;20042;-74
2022/01/10 14:17:31;;;;;;;34.35;21.75;;;;;;;;;;5010952;28;20518;-74
2022/01/10 14:19:57;;;;;;;36.25;22.25;;;;;;;;;;5010593;28;20034;-74
2022/01/10 14:22:23;;;;;;;38.95;21.98;;;;;;;;;;5010644;28;20061;-73
2022/01/10 14:24:49;;;;;;;37.85;22.90;;;;;;;;;;5010231;28;20038;-74
2022/01/10 14:27:15;;;;;;;37.42;22.58;;;;;;;;;;5003876;28;20126;-74
2022/01/10 14:29:41;;;;;;;35.08;21.75;;;;;;;;;;5008407;28;20171;-74
2022/01/10 14:32:08;;;;;;;39.22;22.95;;;;;;;;;;5010260;28;20054;-73
2022/01/10 14:34:34;;;;;;;38.97;24.08;;;;;;;;;;5010196;28;20042;-73